sensor_id;sensor_type;location;lat;lon;timestamp;temperature;humidity
20829;DHT22;10575;50.124;8.582;2022-11-20T00:01:15;3.50;99.90
20829;DHT22;10575;50.124;8.582;2022-11-20T00:03:41;3.50;99.90
20829;DHT22;10575;50.124;8.582;2022-11-20T00:06:09;3.50;99.90
20829;DHT22;10575;50.124;8.582;2022-11-20T00:08:35;3.50;99.90
20829;DHT22;10575;50.124;8.582;2022-11-20T00:11:06;3.40;99.90
20829;DHT22;10575;50.124;8.582;2022-11-20T00:13:32;3.40;99.90
20829;DHT22;10575;50.124;8.582;2022-11-20T00:15:59;3.40;99.90
20829;DHT22;10575;50.124;8.582;2022-11-20T00:18:25;3.40;99.90
20829;DHT22;10575;50.124;8.582;2022-11-20T00:20:51;3.40;99.90
20829;DHT22;10575;50.124;8.582;2022-11-20T00:23:17;3.20;99.90
20829;DHT22;10575;50.124;8.582;2022-11-20T00:25:42;3.00;99.90
20829;DHT22;10575;50.124;8.582;2022-11-20T00:28:08;2.90;99.90
20829;DHT22;10575;50.124;8.582;2022-11-20T00:30:33;2.80;99.90
20829;DHT22;10575;50.124;8.582;2022-11-20T00:32:59;2.70;99.90
20829;DHT22;10575;50.124;8.582;2022-11-20T00:35:24;2.70;99.90
20829;DHT22;10575;50.124;8.582;2022-11-20T00:37:50;2.70;99.90
20829;DHT22;10575;50.124;8.582;2022-11-20T00:40:15;2.80;99.90
20829;DHT22;10575;50.124;8.582;2022-11-20T00:42:41;2.80;99.90
20829;DHT22;10575;50.124;8.582;2022-11-20T00:45:06;2.80;99.90
20829;DHT22;10575;50.124;8.582;2022-11-20T00:47:32;2.90;99.90
20829;DHT22;10575;50.124;8.582;2022-11-20T00:49:57;3.10;99.90
20829;DHT22;10575;50.124;8.582;2022-11-20T00:52:26;3.10;99.90
20829;DHT22;10575;50.124;8.582;2022-11-20T00:54:51;3.10;99.90
20829;DHT22;10575;50.124;8.582;2022-11-20T00:57:17;3.20;99.90
20829;DHT22;10575;50.124;8.582;2022-11-20T00:59:42;3.40;99.90
20829;DHT22;10575;50.124;8.582;2022-11-20T01:02:08;3.40;99.90
20829;DHT22;10575;50.124;8.582;2022-11-20T01:04:33;3.20;99.90
20829;DHT22;10575;50.124;8.582;2022-11-20T01:06:59;3.30;99.90
20829;DHT22;10575;50.124;8.582;2022-11-20T01:09:24;3.20;99.90
20829;DHT22;10575;50.124;8.582;2022-11-20T01:11:49;3.20;99.90
20829;DHT22;10575;50.124;8.582;2022-11-20T01:14:19;3.30;99.90
20829;DHT22;10575;50.124;8.582;2022-11-20T01:16:47;3.30;99.90
20829;DHT22;10575;50.124;8.582;2022-11-20T01:19:19;3.20;99.90
20829;DHT22;10575;50.124;8.582;2022-11-20T01:21:48;3.30;99.90
20829;DHT22;10575;50.124;8.582;2022-11-20T01:24:15;3.40;99.90
20829;DHT22;10575;50.124;8.582;2022-11-20T01:26:43;3.30;99.90
20829;DHT22;10575;50.124;8.582;2022-11-20T01:29:15;3.30;99.90
20829;DHT22;10575;50.124;8.582;2022-11-20T01:31:41;3.40;99.90
20829;DHT22;10575;50.124;8.582;2022-11-20T01:34:10;3.40;99.90
20829;DHT22;10575;50.124;8.582;2022-11-20T01:36:37;3.40;99.90
20829;DHT22;10575;50.124;8.582;2022-11-20T01:39:05;3.30;99.90
20829;DHT22;10575;50.124;8.582;2022-11-20T01:41:32;3.30;99.90
20829;DHT22;10575;50.124;8.582;2022-11-20T01:44:20;3.50;99.90
20829;DHT22;10575;50.124;8.582;2022-11-20T01:46:59;3.70;99.90
20829;DHT22;10575;50.124;8.582;2022-11-20T01:49:39;3.80;99.90
20829;DHT22;10575;50.124;8.582;2022-11-20T01:52:20;3.60;99.90
20829;DHT22;10575;50.124;8.582;2022-11-20T01:55:00;3.60;99.90
20829;DHT22;10575;50.124;8.582;2022-11-20T01:57:28;3.60;99.90
20829;DHT22;10575;50.124;8.582;2022-11-20T02:00:02;3.60;99.90
20829;DHT22;10575;50.124;8.582;2022-11-20T02:02:28;3.40;99.90
20829;DHT22;10575;50.124;8.582;2022-11-20T02:04:57;3.20;99.90
20829;DHT22;10575;50.124;8.582;2022-11-20T02:07:26;3.10;99.90
20829;DHT22;10575;50.124;8.582;2022-11-20T02:09:52;3.40;99.90
20829;DHT22;10575;50.124;8.582;2022-11-20T02:12:18;3.50;99.90
20829;DHT22;10575;50.124;8.582;2022-11-20T02:15:02;3.30;99.90
20829;DHT22;10575;50.124;8.582;2022-11-20T02:17:27;3.10;99.90
20829;DHT22;10575;50.124;8.582;2022-11-20T02:19:53;3.00;99.90
20829;DHT22;10575;50.124;8.582;2022-11-20T02:22:28;3.00;99.90
20829;DHT22;10575;50.124;8.582;2022-11-20T02:24:54;3.00;99.90
20829;DHT22;10575;50.124;8.582;2022-11-20T02:27:20;3.10;99.90
20829;DHT22;10575;50.124;8.582;2022-11-20T02:29:53;3.10;99.90
20829;DHT22;10575;50.124;8.582;2022-11-20T02:32:30;3.10;99.90
20829;DHT22;10575;50.124;8.582;2022-11-20T02:34:56;3.20;99.90
20829;DHT22;10575;50.124;8.582;2022-11-20T02:37:22;3.30;99.90
20829;DHT22;10575;50.124;8.582;2022-11-20T02:39:50;3.20;99.90
20829;DHT22;10575;50.124;8.582;2022-11-20T02:42:16;3.30;99.90
20829;DHT22;10575;50.124;8.582;2022-11-20T02:44:42;3.20;99.90
20829;DHT22;10575;50.124;8.582;2022-11-20T02:47:08;3.10;99.90
20829;DHT22;10575;50.124;8.582;2022-11-20T02:49:33;2.90;99.90
20829;DHT22;10575;50.124;8.582;2022-11-20T02:51:59;2.70;99.90
20829;DHT22;10575;50.124;8.582;2022-11-20T02:54:25;2.60;99.90
20829;DHT22;10575;50.124;8.582;2022-11-20T02:56:50;2.50;99.90
20829;DHT22;10575;50.124;8.582;2022-11-20T02:59:16;2.50;99.90
20829;DHT22;10575;50.124;8.582;2022-11-20T03:01:41;2.40;99.90
20829;DHT22;10575;50.124;8.582;2022-11-20T03:04:07;2.40;99.90
20829;DHT22;10575;50.124;8.582;2022-11-20T03:06:32;2.60;99.90
20829;DHT22;10575;50.124;8.582;2022-11-20T03:08:58;2.80;99.90
20829;DHT22;10575;50.124;8.582;2022-11-20T03:11:23;2.80;99.90
20829;DHT22;10575;50.124;8.582;2022-11-20T03:13:49;2.80;99.90
20829;DHT22;10575;50.124;8.582;2022-11-20T03:16:20;2.80;99.90
20829;DHT22;10575;50.124;8.582;2022-11-20T03:18:46;2.90;99.90
20829;DHT22;10575;50.124;8.582;2022-11-20T03:21:12;3.00;99.90
20829;DHT22;10575;50.124;8.582;2022-11-20T03:23:38;3.00;99.90
20829;DHT22;10575;50.124;8.582;2022-11-20T03:28:33;3.10;99.90
20829;DHT22;10575;50.124;8.582;2022-11-20T03:31:07;3.00;99.90
20829;DHT22;10575;50.124;8.582;2022-11-20T03:33:32;2.90;99.90
20829;DHT22;10575;50.124;8.582;2022-11-20T03:36:02;2.90;99.90
20829;DHT22;10575;50.124;8.582;2022-11-20T03:38:29;2.90;99.90
20829;DHT22;10575;50.124;8.582;2022-11-20T03:41:19;2.80;99.90
20829;DHT22;10575;50.124;8.582;2022-11-20T03:44:02;2.80;99.90
20829;DHT22;10575;50.124;8.582;2022-11-20T03:46:29;2.80;99.90
20829;DHT22;10575;50.124;8.582;2022-11-20T03:48:55;2.70;99.90
20829;DHT22;10575;50.124;8.582;2022-11-20T03:51:23;2.60;99.90
20829;DHT22;10575;50.124;8.582;2022-11-20T03:53:50;2.80;99.90
20829;DHT22;10575;50.124;8.582;2022-11-20T03:56:18;3.00;99.90
20829;DHT22;10575;50.124;8.582;2022-11-20T03:58:43;3.00;99.90
20829;DHT22;10575;50.124;8.582;2022-11-20T04:01:14;3.00;99.90
20829;DHT22;10575;50.124;8.582;2022-11-20T04:03:41;2.90;99.90
20829;DHT22;10575;50.124;8.582;2022-11-20T04:06:15;3.00;99.90
20829;DHT22;10575;50.124;8.582;2022-11-20T04:08:42;3.30;99.90
20829;DHT22;10575;50.124;8.582;2022-11-20T04:11:19;3.40;99.90
20829;DHT22;10575;50.124;8.582;2022-11-20T04:13:48;3.40;99.90
20829;DHT22;10575;50.124;8.582;2022-11-20T04:16:14;3.20;99.90
20829;DHT22;10575;50.124;8.582;2022-11-20T04:18:39;3.00;99.90
20829;DHT22;10575;50.124;8.582;2022-11-20T04:21:06;2.80;99.90
20829;DHT22;10575;50.124;8.582;2022-11-20T04:23:31;2.80;99.90
20829;DHT22;10575;50.124;8.582;2022-11-20T04:26:07;2.90;99.90
20829;DHT22;10575;50.124;8.582;2022-11-20T04:28:33;2.90;99.90
20829;DHT22;10575;50.124;8.582;2022-11-20T04:31:06;3.10;99.90
20829;DHT22;10575;50.124;8.582;2022-11-20T04:33:33;3.10;99.90
20829;DHT22;10575;50.124;8.582;2022-11-20T04:36:07;3.20;99.90
20829;DHT22;10575;50.124;8.582;2022-11-20T04:38:33;3.30;99.90
20829;DHT22;10575;50.124;8.582;2022-11-20T04:41:00;3.10;99.90
20829;DHT22;10575;50.124;8.582;2022-11-20T04:43:27;2.90;99.90
20829;DHT22;10575;50.124;8.582;2022-11-20T04:45:56;2.90;99.90
20829;DHT22;10575;50.124;8.582;2022-11-20T04:48:23;2.90;99.90
20829;DHT22;10575;50.124;8.582;2022-11-20T04:50:49;3.00;99.90
20829;DHT22;10575;50.124;8.582;2022-11-20T04:53:15;2.90;99.90
20829;DHT22;10575;50.124;8.582;2022-11-20T04:55:40;2.90;99.90
20829;DHT22;10575;50.124;8.582;2022-11-20T04:58:06;2.90;99.90
20829;DHT22;10575;50.124;8.582;2022-11-20T05:00:32;2.90;99.90
20829;DHT22;10575;50.124;8.582;2022-11-20T05:02:57;2.90;99.90
20829;DHT22;10575;50.124;8.582;2022-11-20T05:05:23;3.00;99.90
20829;DHT22;10575;50.124;8.582;2022-11-20T05:07:48;2.90;99.90
20829;DHT22;10575;50.124;8.582;2022-11-20T05:10:14;3.00;99.90
20829;DHT22;10575;50.124;8.582;2022-11-20T05:12:40;3.10;99.90
20829;DHT22;10575;50.124;8.582;2022-11-20T05:15:06;3.20;99.90
20829;DHT22;10575;50.124;8.582;2022-11-20T05:17:31;3.10;99.90
20829;DHT22;10575;50.124;8.582;2022-11-20T05:19:57;3.20;99.90
20829;DHT22;10575;50.124;8.582;2022-11-20T05:22:22;3.20;99.90
20829;DHT22;10575;50.124;8.582;2022-11-20T05:24:48;3.40;99.90
20829;DHT22;10575;50.124;8.582;2022-11-20T05:27:13;3.50;99.90
20829;DHT22;10575;50.124;8.582;2022-11-20T05:29:39;3.50;99.90
20829;DHT22;10575;50.124;8.582;2022-11-20T05:32:04;3.70;99.90
20829;DHT22;10575;50.124;8.582;2022-11-20T05:34:32;3.60;99.90
20829;DHT22;10575;50.124;8.582;2022-11-20T05:36:58;3.30;99.90
20829;DHT22;10575;50.124;8.582;2022-11-20T05:39:23;3.20;99.90
20829;DHT22;10575;50.124;8.582;2022-11-20T05:41:49;3.20;99.90
20829;DHT22;10575;50.124;8.582;2022-11-20T05:44:34;3.00;99.90
20829;DHT22;10575;50.124;8.582;2022-11-20T05:47:00;2.80;99.90
20829;DHT22;10575;50.124;8.582;2022-11-20T05:49:25;2.70;99.90
20829;DHT22;10575;50.124;8.582;2022-11-20T05:51:51;2.60;99.90
20829;DHT22;10575;50.124;8.582;2022-11-20T05:54:17;2.60;99.90
20829;DHT22;10575;50.124;8.582;2022-11-20T05:56:42;2.50;99.90
20829;DHT22;10575;50.124;8.582;2022-11-20T05:59:08;2.40;99.90
20829;DHT22;10575;50.124;8.582;2022-11-20T06:01:33;2.30;99.90
20829;DHT22;10575;50.124;8.582;2022-11-20T06:04:01;2.30;99.90
20829;DHT22;10575;50.124;8.582;2022-11-20T06:06:27;2.20;99.90
20829;DHT22;10575;50.124;8.582;2022-11-20T06:08:52;2.40;99.90
20829;DHT22;10575;50.124;8.582;2022-11-20T06:11:18;2.30;99.90
20829;DHT22;10575;50.124;8.582;2022-11-20T06:13:45;2.30;99.90
20829;DHT22;10575;50.124;8.582;2022-11-20T06:16:12;2.40;99.90
20829;DHT22;10575;50.124;8.582;2022-11-20T06:18:39;2.60;99.90
20829;DHT22;10575;50.124;8.582;2022-11-20T06:21:10;2.60;99.90
20829;DHT22;10575;50.124;8.582;2022-11-20T06:23:36;2.90;99.90
20829;DHT22;10575;50.124;8.582;2022-11-20T06:26:07;2.90;99.90
20829;DHT22;10575;50.124;8.582;2022-11-20T06:28:33;2.80;99.90
20829;DHT22;10575;50.124;8.582;2022-11-20T06:30:59;2.70;99.90
20829;DHT22;10575;50.124;8.582;2022-11-20T06:33:24;2.70;99.90
20829;DHT22;10575;50.124;8.582;2022-11-20T06:35:51;2.70;99.90
20829;DHT22;10575;50.124;8.582;2022-11-20T06:38:16;2.70;99.90
20829;DHT22;10575;50.124;8.582;2022-11-20T06:40:42;2.70;99.90
20829;DHT22;10575;50.124;8.582;2022-11-20T06:43:09;2.50;99.90
20829;DHT22;10575;50.124;8.582;2022-11-20T06:45:36;2.50;99.90
20829;DHT22;10575;50.124;8.582;2022-11-20T06:48:01;2.50;99.90
20829;DHT22;10575;50.124;8.582;2022-11-20T06:50:27;2.60;99.90
20829;DHT22;10575;50.124;8.582;2022-11-20T06:52:53;2.50;99.90
20829;DHT22;10575;50.124;8.582;2022-11-20T06:55:18;2.50;99.90
20829;DHT22;10575;50.124;8.582;2022-11-20T06:57:44;2.70;99.90
20829;DHT22;10575;50.124;8.582;2022-11-20T07:00:10;2.80;99.90
20829;DHT22;10575;50.124;8.582;2022-11-20T07:02:36;2.80;99.90
20829;DHT22;10575;50.124;8.582;2022-11-20T07:05:01;3.00;99.90
20829;DHT22;10575;50.124;8.582;2022-11-20T07:07:27;3.00;99.90
20829;DHT22;10575;50.124;8.582;2022-11-20T07:09:52;3.00;99.90
20829;DHT22;10575;50.124;8.582;2022-11-20T07:12:18;3.10;99.90
20829;DHT22;10575;50.124;8.582;2022-11-20T07:14:43;3.30;99.90
20829;DHT22;10575;50.124;8.582;2022-11-20T07:17:09;3.40;99.90
20829;DHT22;10575;50.124;8.582;2022-11-20T07:19:34;3.60;99.90
20829;DHT22;10575;50.124;8.582;2022-11-20T07:22:00;3.70;99.90
20829;DHT22;10575;50.124;8.582;2022-11-20T07:24:25;3.80;99.90
20829;DHT22;10575;50.124;8.582;2022-11-20T07:26:51;3.90;99.90
20829;DHT22;10575;50.124;8.582;2022-11-20T07:29:16;3.90;99.90
20829;DHT22;10575;50.124;8.582;2022-11-20T07:31:42;3.90;99.90
20829;DHT22;10575;50.124;8.582;2022-11-20T07:34:08;3.90;99.90
20829;DHT22;10575;50.124;8.582;2022-11-20T07:36:34;3.90;99.90
20829;DHT22;10575;50.124;8.582;2022-11-20T07:38:59;3.90;99.90
20829;DHT22;10575;50.124;8.582;2022-11-20T07:41:25;3.90;99.90
20829;DHT22;10575;50.124;8.582;2022-11-20T07:43:50;3.90;99.90
20829;DHT22;10575;50.124;8.582;2022-11-20T07:46:16;3.90;99.90
20829;DHT22;10575;50.124;8.582;2022-11-20T07:48:42;3.90;99.90
20829;DHT22;10575;50.124;8.582;2022-11-20T07:51:07;4.00;99.90
20829;DHT22;10575;50.124;8.582;2022-11-20T07:53:33;4.10;99.90
20829;DHT22;10575;50.124;8.582;2022-11-20T07:56:02;4.00;99.90
20829;DHT22;10575;50.124;8.582;2022-11-20T07:58:31;4.10;99.90
20829;DHT22;10575;50.124;8.582;2022-11-20T08:01:05;4.10;99.90
20829;DHT22;10575;50.124;8.582;2022-11-20T08:03:31;4.20;99.90
20829;DHT22;10575;50.124;8.582;2022-11-20T08:05:59;4.10;99.90
20829;DHT22;10575;50.124;8.582;2022-11-20T08:08:26;4.00;99.90
20829;DHT22;10575;50.124;8.582;2022-11-20T08:10:52;4.10;99.90
20829;DHT22;10575;50.124;8.582;2022-11-20T08:13:17;4.10;99.90
20829;DHT22;10575;50.124;8.582;2022-11-20T08:16:01;4.10;99.90
20829;DHT22;10575;50.124;8.582;2022-11-20T08:18:27;4.10;99.90
20829;DHT22;10575;50.124;8.582;2022-11-20T08:20:52;4.20;99.90
20829;DHT22;10575;50.124;8.582;2022-11-20T08:23:18;4.20;99.90
20829;DHT22;10575;50.124;8.582;2022-11-20T08:25:43;4.30;99.90
20829;DHT22;10575;50.124;8.582;2022-11-20T08:28:13;4.40;99.90
20829;DHT22;10575;50.124;8.582;2022-11-20T08:30:39;4.50;99.90
20829;DHT22;10575;50.124;8.582;2022-11-20T08:33:06;4.40;99.90
20829;DHT22;10575;50.124;8.582;2022-11-20T08:35:37;4.50;99.90
20829;DHT22;10575;50.124;8.582;2022-11-20T08:38:04;4.60;99.90
20829;DHT22;10575;50.124;8.582;2022-11-20T08:40:30;4.70;99.90
20829;DHT22;10575;50.124;8.582;2022-11-20T08:42:55;4.80;99.90
20829;DHT22;10575;50.124;8.582;2022-11-20T08:45:21;4.90;99.90
20829;DHT22;10575;50.124;8.582;2022-11-20T08:47:47;4.90;99.90
20829;DHT22;10575;50.124;8.582;2022-11-20T08:50:14;5.00;99.90
20829;DHT22;10575;50.124;8.582;2022-11-20T08:52:40;5.10;99.90
20829;DHT22;10575;50.124;8.582;2022-11-20T08:55:07;5.20;99.90
20829;DHT22;10575;50.124;8.582;2022-11-20T08:57:36;5.20;99.90
20829;DHT22;10575;50.124;8.582;2022-11-20T09:00:07;5.20;99.90
20829;DHT22;10575;50.124;8.582;2022-11-20T09:02:33;5.10;99.90
20829;DHT22;10575;50.124;8.582;2022-11-20T09:04:59;5.20;99.90
20829;DHT22;10575;50.124;8.582;2022-11-20T09:07:24;5.30;99.90
20829;DHT22;10575;50.124;8.582;2022-11-20T09:09:50;5.30;99.90
20829;DHT22;10575;50.124;8.582;2022-11-20T09:12:15;5.40;99.90
20829;DHT22;10575;50.124;8.582;2022-11-20T09:14:41;5.40;99.90
20829;DHT22;10575;50.124;8.582;2022-11-20T09:17:07;5.40;99.90
20829;DHT22;10575;50.124;8.582;2022-11-20T09:19:33;5.40;99.90
20829;DHT22;10575;50.124;8.582;2022-11-20T09:21:59;5.40;99.90
20829;DHT22;10575;50.124;8.582;2022-11-20T09:24:25;5.30;99.90
20829;DHT22;10575;50.124;8.582;2022-11-20T09:26:51;5.30;99.90
20829;DHT22;10575;50.124;8.582;2022-11-20T09:29:16;5.40;99.90
20829;DHT22;10575;50.124;8.582;2022-11-20T09:31:42;5.60;99.90
20829;DHT22;10575;50.124;8.582;2022-11-20T09:34:07;5.80;99.90
20829;DHT22;10575;50.124;8.582;2022-11-20T09:36:37;6.00;99.90
20829;DHT22;10575;50.124;8.582;2022-11-20T09:39:05;6.40;99.90
20829;DHT22;10575;50.124;8.582;2022-11-20T09:41:54;6.50;99.90
20829;DHT22;10575;50.124;8.582;2022-11-20T09:44:34;6.80;99.90
20829;DHT22;10575;50.124;8.582;2022-11-20T09:47:10;6.80;99.90
20829;DHT22;10575;50.124;8.582;2022-11-20T09:52:44;7.60;99.90
20829;DHT22;10575;50.124;8.582;2022-11-20T09:55:14;7.80;99.90
20829;DHT22;10575;50.124;8.582;2022-11-20T09:57:44;7.60;99.90
20829;DHT22;10575;50.124;8.582;2022-11-20T10:00:13;7.50;99.90
20829;DHT22;10575;50.124;8.582;2022-11-20T10:03:01;7.20;99.90
20829;DHT22;10575;50.124;8.582;2022-11-20T10:05:39;6.70;99.90
20829;DHT22;10575;50.124;8.582;2022-11-20T10:08:28;6.70;99.90
20829;DHT22;10575;50.124;8.582;2022-11-20T10:11:21;6.70;99.90
20829;DHT22;10575;50.124;8.582;2022-11-20T10:19:47;6.40;99.90
20829;DHT22;10575;50.124;8.582;2022-11-20T10:25:16;6.20;99.90
20829;DHT22;10575;50.124;8.582;2022-11-20T10:30:17;6.30;99.90
20829;DHT22;10575;50.124;8.582;2022-11-20T10:32:50;6.50;99.90
20829;DHT22;10575;50.124;8.582;2022-11-20T10:35:25;6.60;99.90
20829;DHT22;10575;50.124;8.582;2022-11-20T10:38:02;6.60;99.90
20829;DHT22;10575;50.124;8.582;2022-11-20T10:40:42;6.60;99.90
20829;DHT22;10575;50.124;8.582;2022-11-20T10:43:22;6.50;99.90
20829;DHT22;10575;50.124;8.582;2022-11-20T10:46:00;6.40;99.90
20829;DHT22;10575;50.124;8.582;2022-11-20T10:48:29;6.40;99.90
20829;DHT22;10575;50.124;8.582;2022-11-20T10:53:56;6.40;99.90
20829;DHT22;10575;50.124;8.582;2022-11-20T10:56:41;6.40;99.90
20829;DHT22;10575;50.124;8.582;2022-11-20T11:01:51;6.30;99.90
20829;DHT22;10575;50.124;8.582;2022-11-20T11:07:06;6.20;99.90
20829;DHT22;10575;50.124;8.582;2022-11-20T11:09:39;6.20;99.90
20829;DHT22;10575;50.124;8.582;2022-11-20T11:12:08;6.20;99.90
20829;DHT22;10575;50.124;8.582;2022-11-20T11:14:51;6.20;99.90
20829;DHT22;10575;50.124;8.582;2022-11-20T11:20:49;6.20;99.90
20829;DHT22;10575;50.124;8.582;2022-11-20T11:22:51;6.20;99.90
20829;DHT22;10575;50.124;8.582;2022-11-20T11:27:52;6.30;99.90
20829;DHT22;10575;50.124;8.582;2022-11-20T11:30:19;6.40;99.90
20829;DHT22;10575;50.124;8.582;2022-11-20T11:32:46;6.40;99.90
20829;DHT22;10575;50.124;8.582;2022-11-20T11:35:21;6.40;99.90
20829;DHT22;10575;50.124;8.582;2022-11-20T11:37:47;6.50;99.90
20829;DHT22;10575;50.124;8.582;2022-11-20T11:40:15;6.40;99.90
20829;DHT22;10575;50.124;8.582;2022-11-20T11:42:50;6.40;99.90
20829;DHT22;10575;50.124;8.582;2022-11-20T11:45:16;6.50;99.90
20829;DHT22;10575;50.124;8.582;2022-11-20T11:47:48;6.70;99.90
20829;DHT22;10575;50.124;8.582;2022-11-20T11:50:25;6.70;99.90
20829;DHT22;10575;50.124;8.582;2022-11-20T11:52:56;6.60;99.90
20829;DHT22;10575;50.124;8.582;2022-11-20T11:55:43;6.70;99.90
20829;DHT22;10575;50.124;8.582;2022-11-20T12:01:36;7.00;99.90
20829;DHT22;10575;50.124;8.582;2022-11-20T12:04:16;7.10;99.90
20829;DHT22;10575;50.124;8.582;2022-11-20T12:06:45;7.20;99.90
20829;DHT22;10575;50.124;8.582;2022-11-20T12:09:13;7.40;99.90
20829;DHT22;10575;50.124;8.582;2022-11-20T12:12:05;7.40;99.90
20829;DHT22;10575;50.124;8.582;2022-11-20T12:14:37;7.30;99.90
20829;DHT22;10575;50.124;8.582;2022-11-20T12:17:03;7.10;99.90
20829;DHT22;10575;50.124;8.582;2022-11-20T12:19:31;7.00;99.90
20829;DHT22;10575;50.124;8.582;2022-11-20T12:22:18;6.80;99.90
20829;DHT22;10575;50.124;8.582;2022-11-20T12:24:59;6.50;99.90
20829;DHT22;10575;50.124;8.582;2022-11-20T12:27:47;6.50;99.90
20829;DHT22;10575;50.124;8.582;2022-11-20T12:30:20;6.60;99.90
20829;DHT22;10575;50.124;8.582;2022-11-20T12:33:18;6.70;99.90
20829;DHT22;10575;50.124;8.582;2022-11-20T12:38:57;6.90;99.90
20829;DHT22;10575;50.124;8.582;2022-11-20T12:41:48;6.90;99.90
20829;DHT22;10575;50.124;8.582;2022-11-20T12:45:18;7.00;99.90
20829;DHT22;10575;50.124;8.582;2022-11-20T12:56:33;7.00;99.90
20829;DHT22;10575;50.124;8.582;2022-11-20T13:01:51;6.80;99.90
20829;DHT22;10575;50.124;8.582;2022-11-20T13:07:03;6.80;99.90
20829;DHT22;10575;50.124;8.582;2022-11-20T13:09:30;6.80;99.90
20829;DHT22;10575;50.124;8.582;2022-11-20T13:12:10;6.70;99.90
20829;DHT22;10575;50.124;8.582;2022-11-20T13:14:42;6.70;99.90
20829;DHT22;10575;50.124;8.582;2022-11-20T13:17:20;6.60;99.90
20829;DHT22;10575;50.124;8.582;2022-11-20T13:19:55;6.50;99.90
20829;DHT22;10575;50.124;8.582;2022-11-20T13:22:26;6.60;99.90
20829;DHT22;10575;50.124;8.582;2022-11-20T13:24:52;6.70;99.90
20829;DHT22;10575;50.124;8.582;2022-11-20T13:27:20;6.70;99.90
20829;DHT22;10575;50.124;8.582;2022-11-20T13:29:58;6.70;99.90
20829;DHT22;10575;50.124;8.582;2022-11-20T13:32:26;6.80;99.90
20829;DHT22;10575;50.124;8.582;2022-11-20T13:35:11;6.90;99.90
20829;DHT22;10575;50.124;8.582;2022-11-20T13:37:37;6.90;99.90
20829;DHT22;10575;50.124;8.582;2022-11-20T13:43:00;6.90;99.90
20829;DHT22;10575;50.124;8.582;2022-11-20T13:45:29;6.90;99.90
20829;DHT22;10575;50.124;8.582;2022-11-20T13:47:56;7.00;99.90
20829;DHT22;10575;50.124;8.582;2022-11-20T13:56:19;6.80;99.90
20829;DHT22;10575;50.124;8.582;2022-11-20T14:01:35;6.60;99.90
20829;DHT22;10575;50.124;8.582;2022-11-20T14:04:09;6.70;99.90
20829;DHT22;10575;50.124;8.582;2022-11-20T14:06:42;6.70;99.90
20829;DHT22;10575;50.124;8.582;2022-11-20T14:09:32;6.70;99.90
20829;DHT22;10575;50.124;8.582;2022-11-20T14:11:58;6.70;99.90
20829;DHT22;10575;50.124;8.582;2022-11-20T14:14:28;6.70;99.90
20829;DHT22;10575;50.124;8.582;2022-11-20T14:17:30;6.70;99.90
20829;DHT22;10575;50.124;8.582;2022-11-20T14:20:06;6.70;99.90
20829;DHT22;10575;50.124;8.582;2022-11-20T14:22:32;6.80;99.90
20829;DHT22;10575;50.124;8.582;2022-11-20T14:27:38;6.80;99.90
20829;DHT22;10575;50.124;8.582;2022-11-20T14:30:06;6.80;99.90
20829;DHT22;10575;50.124;8.582;2022-11-20T14:32:38;6.80;99.90
20829;DHT22;10575;50.124;8.582;2022-11-20T14:35:10;6.80;99.90
20829;DHT22;10575;50.124;8.582;2022-11-20T14:37:38;6.70;99.90
20829;DHT22;10575;50.124;8.582;2022-11-20T14:40:26;6.70;99.90
20829;DHT22;10575;50.124;8.582;2022-11-20T14:42:52;6.70;99.90
20829;DHT22;10575;50.124;8.582;2022-11-20T14:45:18;6.70;99.90
20829;DHT22;10575;50.124;8.582;2022-11-20T14:47:45;6.80;99.90
20829;DHT22;10575;50.124;8.582;2022-11-20T14:50:29;6.80;99.90
20829;DHT22;10575;50.124;8.582;2022-11-20T14:52:59;6.80;99.90
20829;DHT22;10575;50.124;8.582;2022-11-20T14:55:33;6.80;99.90
20829;DHT22;10575;50.124;8.582;2022-11-20T14:58:04;6.80;99.90
20829;DHT22;10575;50.124;8.582;2022-11-20T15:00:32;6.80;99.90
20829;DHT22;10575;50.124;8.582;2022-11-20T15:02:58;6.80;99.90
20829;DHT22;10575;50.124;8.582;2022-11-20T15:05:36;6.80;99.90
20829;DHT22;10575;50.124;8.582;2022-11-20T15:08:09;6.80;99.90
20829;DHT22;10575;50.124;8.582;2022-11-20T15:10:35;6.70;99.90
20829;DHT22;10575;50.124;8.582;2022-11-20T15:13:14;6.60;99.90
20829;DHT22;10575;50.124;8.582;2022-11-20T15:15:46;6.60;99.90
20829;DHT22;10575;50.124;8.582;2022-11-20T15:18:17;6.60;99.90
20829;DHT22;10575;50.124;8.582;2022-11-20T15:20:44;6.60;99.90
20829;DHT22;10575;50.124;8.582;2022-11-20T15:23:12;6.60;99.90
20829;DHT22;10575;50.124;8.582;2022-11-20T15:25:41;6.60;99.90
20829;DHT22;10575;50.124;8.582;2022-11-20T15:28:19;6.60;99.90
20829;DHT22;10575;50.124;8.582;2022-11-20T15:30:46;6.60;99.90
20829;DHT22;10575;50.124;8.582;2022-11-20T15:33:12;6.50;99.90
20829;DHT22;10575;50.124;8.582;2022-11-20T15:35:38;6.50;99.90
20829;DHT22;10575;50.124;8.582;2022-11-20T15:38:04;6.50;99.90
20829;DHT22;10575;50.124;8.582;2022-11-20T15:40:29;6.50;99.90
20829;DHT22;10575;50.124;8.582;2022-11-20T15:42:54;6.50;99.90
20829;DHT22;10575;50.124;8.582;2022-11-20T15:45:47;6.50;99.90
20829;DHT22;10575;50.124;8.582;2022-11-20T15:48:20;6.50;99.90
20829;DHT22;10575;50.124;8.582;2022-11-20T15:53:40;6.60;99.90
20829;DHT22;10575;50.124;8.582;2022-11-20T15:56:11;6.60;99.90
20829;DHT22;10575;50.124;8.582;2022-11-20T15:58:36;6.60;99.90
20829;DHT22;10575;50.124;8.582;2022-11-20T16:01:02;6.50;99.90
20829;DHT22;10575;50.124;8.582;2022-11-20T16:03:27;6.50;99.90
20829;DHT22;10575;50.124;8.582;2022-11-20T16:05:53;6.40;99.90
20829;DHT22;10575;50.124;8.582;2022-11-20T16:08:18;6.40;99.90
20829;DHT22;10575;50.124;8.582;2022-11-20T16:10:44;6.40;99.90
20829;DHT22;10575;50.124;8.582;2022-11-20T16:13:17;6.40;99.90
20829;DHT22;10575;50.124;8.582;2022-11-20T16:16:04;6.40;99.90
20829;DHT22;10575;50.124;8.582;2022-11-20T16:18:31;6.40;99.90
20829;DHT22;10575;50.124;8.582;2022-11-20T16:20:57;6.40;99.90
20829;DHT22;10575;50.124;8.582;2022-11-20T16:23:22;6.40;99.90
20829;DHT22;10575;50.124;8.582;2022-11-20T16:25:49;6.40;99.90
20829;DHT22;10575;50.124;8.582;2022-11-20T16:28:14;6.40;99.90
20829;DHT22;10575;50.124;8.582;2022-11-20T16:30:40;6.30;99.90
20829;DHT22;10575;50.124;8.582;2022-11-20T16:33:13;6.40;99.90
20829;DHT22;10575;50.124;8.582;2022-11-20T16:35:40;6.50;99.90
20829;DHT22;10575;50.124;8.582;2022-11-20T16:38:05;6.50;99.90
20829;DHT22;10575;50.124;8.582;2022-11-20T16:40:31;6.50;99.90
20829;DHT22;10575;50.124;8.582;2022-11-20T16:42:57;6.50;99.90
20829;DHT22;10575;50.124;8.582;2022-11-20T16:45:23;6.50;99.90
20829;DHT22;10575;50.124;8.582;2022-11-20T16:47:49;6.60;99.90
20829;DHT22;10575;50.124;8.582;2022-11-20T16:50:14;6.50;99.90
20829;DHT22;10575;50.124;8.582;2022-11-20T16:52:40;6.50;99.90
20829;DHT22;10575;50.124;8.582;2022-11-20T16:55:06;6.50;99.90
20829;DHT22;10575;50.124;8.582;2022-11-20T16:57:31;6.50;99.90
20829;DHT22;10575;50.124;8.582;2022-11-20T16:59:58;6.50;99.90
20829;DHT22;10575;50.124;8.582;2022-11-20T17:02:24;6.50;99.90
20829;DHT22;10575;50.124;8.582;2022-11-20T17:04:50;6.50;99.90
20829;DHT22;10575;50.124;8.582;2022-11-20T17:07:16;6.50;99.90